KTCM/TCM METAR and TAF weather

Enter ICAO airport designator
Station Type Date Time Source
KTCM METAR 2018/12/17 02:58 UTC NOAA

KTCM 170258Z AUTO 19016KT 10SM OVC042 11/11 A2976 RMK AO2 SLP082 60002 T01120110 52031 $


Station Type Date Time Source
KTCM Decoded METAR 2018/12/17 02:58 UTC NOAA

Tacoma / McChord Air Force Base, WA, United States (KTCM) 47-09N 122-29W 87M
Dec 16, 2018 - 09:58 PM EST / 2018.12.17 0258 UTC
Wind: from the S (190 degrees) at 18 MPH (16 KT):0
Visibility: 10 mile(s):0
Sky conditions: overcast
Temperature: 52.2 F (11.2 C)
Dew Point: 51.8 F (11.0 C)
Relative Humidity: 98%
Pressure (altimeter): 29.76 in. Hg (1007 hPa)
Pressure tendency: 0.09 inches (3.1 hPa) higher than three hours ago
ob: KTCM 170258Z AUTO 19016KT 10SM OVC042 11/11 A2976 RMK AO2 SLP082 60002 T01120110 52031
cycle: 3

Station Type Date Time Source
KTCM TAF 2018/12/16 21:30 UTC NOAA

TAF TAF KTCM 162106Z 1621/1803 VRB06KT 9999 -SHRA FEW002 OVC055 610809 QNH2962INS
BECMG 1623/1624 18012KT 8000 -SHRA OVC020 610809 QNH2968INS
BECMG 1711/1712 18012KT 9999 NSW BKN020 620809 QNH2994INS
BECMG 1717/1718 18015G25KT 9999 BKN020 620809 520009 QNH2990INS
BECMG 1721/1722 18015G25KT 8000 -RA SCT020 BKN200 QNH2988INS
BECMG 1801/1802 18020G30KT 8000 -RA SCT020 BKN200 530009 QNH2979INS TX10/1621Z TN06/1711Z


Example: see airport list